CheckWX is a tool to help pilots better visualize weather data.  It is not intended as a substitute for an official pre-flight weather briefing.

01:05:29 UTC

KETB METAR
West Bend Municipal Airport
West Bend, Wisconsin, USA
Current

30 mins ago

KETB 200035Z AUTO 12003KT 10SM CLR 22/19 A3001 RMK AO2
Observed
Aug-20 @ 00:35 UTC
Wind
  • 120° at 3 KTS
Visibility
10 SM
Flight Rules
VFR
Cloud Levels
  • Clear skies
Temperature
22°C / 72°F
Dewpoint
19°C / 66°F
Humidity
83%
Altimeter
30.01" Hg
Pressure
1016.22 hPa
Previous

1 hour ago

KETB 192355Z AUTO 09003KT 10SM CLR 23/18 A3001 RMK AO2
Observed
Aug-19 @ 23:55 UTC
Wind
  • 090° at 3 KTS
Visibility
10 SM
Flight Rules
VFR
Cloud Levels
  • Clear skies
Temperature
23°C / 73°F
Dewpoint
18°C / 64°F
Humidity
74%
Altimeter
30.01" Hg
Pressure
1016.22 hPa
Previous

2 hours ago

KETB 192335Z AUTO 12004KT 10SM CLR 25/18 A3001 RMK AO2
Observed
Aug-19 @ 23:35 UTC
Wind
  • 120° at 4 KTS
Visibility
10 SM
Flight Rules
VFR
Cloud Levels
  • Clear skies
Temperature
25°C / 77°F
Dewpoint
18°C / 64°F
Humidity
65%
Altimeter
30.01" Hg
Pressure
1016.22 hPa